createdAt,value
2022-08-10T00:02:19.508Z,7.45
2022-08-10T00:04:48.124Z,6.43
2022-08-10T00:07:16.771Z,8.05
2022-08-10T00:09:50.606Z,6.60
2022-08-10T00:12:54.327Z,8.47
2022-08-10T00:15:52.583Z,6.35
2022-08-10T00:18:37.785Z,7.18
2022-08-10T00:21:15.250Z,6.32
2022-08-10T00:23:49.995Z,7.10
2022-08-10T00:26:25.142Z,9.93
2022-08-10T00:29:17.340Z,6.18
2022-08-10T00:32:07.489Z,8.00
2022-08-10T00:34:46.005Z,6.45
2022-08-10T00:37:15.971Z,6.85
2022-08-10T00:39:47.115Z,5.38
2022-08-10T00:42:17.785Z,6.78
2022-08-10T00:44:50.221Z,5.20
2022-08-10T00:47:37.209Z,7.13
2022-08-10T00:50:08.745Z,8.32
2022-08-10T00:52:40.685Z,5.75
2022-08-10T00:55:09.985Z,5.78
2022-08-10T00:57:40.315Z,6.00
2022-08-10T01:00:11.903Z,5.28
2022-08-10T01:02:42.369Z,8.32
2022-08-10T01:05:14.683Z,5.35
2022-08-10T01:08:12.120Z,8.77
2022-08-10T01:10:45.621Z,6.63
2022-08-10T01:13:22.791Z,6.32
2022-08-10T01:16:00.345Z,6.32
2022-08-10T01:18:40.123Z,9.45
2022-08-10T01:21:35.603Z,5.05
2022-08-10T01:24:40.680Z,6.97
2022-08-10T01:27:28.220Z,5.57
2022-08-10T01:30:08.390Z,4.35
2022-08-10T01:32:52.420Z,5.95
2022-08-10T01:35:28.490Z,6.63
2022-08-10T01:38:05.090Z,5.40
2022-08-10T01:40:38.511Z,5.18
2022-08-10T01:43:11.320Z,5.38
2022-08-10T01:45:46.963Z,4.88
2022-08-10T01:51:11.143Z,6.40
2022-08-10T01:53:44.580Z,5.45
2022-08-10T01:56:15.910Z,6.25
2022-08-10T01:58:47.959Z,5.28
2022-08-10T02:01:24.678Z,5.43
2022-08-10T02:04:04.381Z,6.28
2022-08-10T02:06:37.134Z,5.47
2022-08-10T02:09:07.784Z,5.40
2022-08-10T02:12:05.572Z,4.68
2022-08-10T02:14:33.362Z,4.05
2022-08-10T02:17:08.119Z,7.00
2022-08-10T02:19:40.605Z,5.10
2022-08-10T02:22:36.973Z,4.38
2022-08-10T02:25:01.691Z,6.07
2022-08-10T02:27:32.399Z,5.00
2022-08-10T02:30:03.130Z,5.10
2022-08-10T02:32:36.395Z,5.32
2022-08-10T02:35:21.861Z,4.82
2022-08-10T02:37:54.810Z,4.68
2022-08-10T02:45:02.315Z,4.75
2022-08-10T02:45:24.537Z,5.03
2022-08-10T02:46:18.201Z,5.78
2022-08-10T02:48:56.121Z,5.75
2022-08-10T02:52:08.078Z,6.50
2022-08-10T02:54:23.630Z,3.67
2022-08-10T02:56:56.550Z,5.10
2022-08-10T02:59:40.024Z,4.40
2022-08-10T03:02:13.710Z,4.45
2022-08-10T03:04:57.040Z,4.82
2022-08-10T03:07:43.376Z,4.68
2022-08-10T03:10:16.741Z,5.68
2022-08-10T03:12:47.448Z,5.28
2022-08-10T03:15:17.360Z,4.93
2022-08-10T03:17:57.729Z,4.28
2022-08-10T03:20:38.215Z,4.38
2022-08-10T03:23:13.414Z,3.80
2022-08-10T03:25:53.111Z,5.63
2022-08-10T03:28:24.907Z,3.55
2022-08-10T03:30:54.516Z,4.57
2022-08-10T03:33:24.494Z,4.35
2022-08-10T03:36:43.168Z,4.50
2022-08-10T03:38:46.367Z,4.82
2022-08-10T03:41:16.925Z,4.57
2022-08-10T03:43:48.241Z,5.45
2022-08-10T03:46:20.514Z,4.47
2022-08-10T03:48:53.645Z,4.13
2022-08-10T03:51:24.826Z,3.72
2022-08-10T03:54:04.188Z,4.28
2022-08-10T03:56:38.848Z,4.30
2022-08-10T03:59:09.649Z,4.60
2022-08-10T04:02:52.387Z,5.55
2022-08-10T04:04:28.049Z,5.15
2022-08-10T04:06:59.587Z,4.28
2022-08-10T04:09:53.054Z,3.45
2022-08-10T04:12:19.304Z,5.25
2022-08-10T04:14:51.098Z,5.25
2022-08-10T04:18:04.447Z,4.13
2022-08-10T04:20:19.671Z,4.25
2022-08-10T04:22:53.712Z,3.78
2022-08-10T04:25:24.382Z,7.10
2022-08-10T04:27:54.064Z,3.95
2022-08-10T04:30:23.247Z,3.85
2022-08-10T04:32:55.764Z,4.35
2022-08-10T04:35:25.764Z,4.53
2022-08-10T04:37:58.484Z,3.67
2022-08-10T04:40:30.252Z,4.00
2022-08-10T04:43:05.812Z,3.80
2022-08-10T04:45:48.833Z,5.55
2022-08-10T04:48:40.982Z,4.68
2022-08-10T04:51:15.315Z,3.88
2022-08-10T04:54:05.025Z,4.38
2022-08-10T04:56:37.382Z,4.80
2022-08-10T04:59:07.312Z,5.95
2022-08-10T05:02:22.356Z,3.80
2022-08-10T05:04:37.746Z,4.03
2022-08-10T05:07:16.733Z,4.93
2022-08-10T05:10:02.311Z,4.80
2022-08-10T05:12:37.668Z,3.90
2022-08-10T05:15:09.661Z,4.35
2022-08-10T05:17:39.105Z,4.15
2022-08-10T05:20:11.364Z,4.65
2022-08-10T05:22:41.426Z,5.75
2022-08-10T05:25:13.907Z,6.30
2022-08-10T05:27:43.305Z,3.92
2022-08-10T05:30:14.856Z,5.28
2022-08-10T05:32:56.754Z,4.57
2022-08-10T05:35:27.575Z,5.63
2022-08-10T05:38:12.414Z,4.63
2022-08-10T05:40:47.869Z,5.95
2022-08-10T05:43:21.570Z,5.15
2022-08-10T05:46:16.948Z,5.40
2022-08-10T05:48:56.088Z,4.38
2022-08-10T05:51:28.148Z,4.32
2022-08-10T05:54:01.789Z,4.15
2022-08-10T05:56:55.678Z,5.03
2022-08-10T06:00:33.005Z,3.90
2022-08-10T06:02:30.767Z,4.75
2022-08-10T06:05:05.828Z,4.72
2022-08-10T06:07:36.641Z,5.07
2022-08-10T06:10:08.363Z,5.75
2022-08-10T06:12:55.334Z,3.65
2022-08-10T06:15:52.121Z,4.78
2022-08-10T06:18:51.994Z,4.53
2022-08-10T06:21:21.665Z,4.75
2022-08-10T06:23:51.745Z,5.30
2022-08-10T06:26:21.792Z,4.80
2022-08-10T06:29:02.904Z,4.50
2022-08-10T06:31:48.321Z,4.00
2022-08-10T06:34:24.164Z,5.32
2022-08-10T06:36:54.584Z,4.78
2022-08-10T06:39:39.839Z,4.30
2022-08-10T06:42:21.571Z,4.18
2022-08-10T06:45:00.955Z,4.30
2022-08-10T06:47:37.535Z,4.13
2022-08-10T06:50:17.479Z,4.57
2022-08-10T06:53:05.254Z,3.72
2022-08-10T06:55:50.104Z,4.72
2022-08-10T06:58:27.864Z,4.22
2022-08-10T07:00:58.811Z,4.32
2022-08-10T07:03:35.495Z,3.75
2022-08-10T07:06:07.446Z,4.90
2022-08-10T07:08:38.189Z,4.22
2022-08-10T07:11:11.988Z,4.00
2022-08-10T07:14:15.251Z,4.43
2022-08-10T07:16:35.075Z,4.07
2022-08-10T07:19:04.984Z,3.70
2022-08-10T07:21:35.106Z,5.22
2022-08-10T07:24:08.540Z,4.97
2022-08-10T07:26:39.670Z,3.03
2022-08-10T07:29:09.284Z,3.40
2022-08-10T07:32:01.974Z,4.10
2022-08-10T07:34:33.508Z,3.35
2022-08-10T07:37:05.447Z,3.05
2022-08-10T07:40:02.799Z,3.00
2022-08-10T07:42:31.253Z,3.55
2022-08-10T07:45:00.525Z,3.03
2022-08-10T07:47:52.322Z,3.20
2022-08-10T07:50:25.887Z,3.95
2022-08-10T07:52:57.250Z,3.13
2022-08-10T07:56:02.012Z,3.90
2022-08-10T07:58:18.574Z,4.57
2022-08-10T08:00:49.871Z,3.45
2022-08-10T08:03:25.183Z,3.00
2022-08-10T08:05:58.421Z,3.13
2022-08-10T08:08:33.819Z,3.53
2022-08-10T08:11:04.574Z,3.55
2022-08-10T08:13:33.913Z,4.05
2022-08-10T08:16:19.960Z,5.00
2022-08-10T08:19:24.032Z,4.13
2022-08-10T08:24:10.567Z,5.30
2022-08-10T08:24:42.273Z,8.75
2022-08-10T08:27:15.412Z,7.68
2022-08-10T08:29:47.230Z,8.60
2022-08-10T08:32:20.985Z,6.38
2022-08-10T08:34:54.974Z,7.53
2022-08-10T08:38:32.720Z,12.25
2022-08-10T08:40:18.215Z,20.88
2022-08-10T08:43:06.864Z,27.77
2022-08-10T08:46:01.821Z,28.50
2022-08-10T08:48:47.442Z,15.67
2022-08-10T08:52:09.483Z,13.10
2022-08-10T08:54:33.105Z,19.90
2022-08-10T08:57:07.460Z,18.48
2022-08-10T08:59:52.720Z,9.07
2022-08-10T09:02:36.204Z,14.13
2022-08-10T09:05:24.730Z,7.97
2022-08-10T09:08:18.081Z,11.65
2022-08-10T09:10:54.295Z,7.63
2022-08-10T09:13:30.962Z,8.52
2022-08-10T09:16:17.819Z,7.25
2022-08-10T09:18:52.855Z,9.20
2022-08-10T09:21:29.733Z,9.13
2022-08-10T09:24:07.209Z,13.57
2022-08-10T09:26:44.969Z,6.43
2022-08-10T09:29:19.101Z,10.85
2022-08-10T09:33:05.852Z,8.50
2022-08-10T09:36:26.781Z,8.50
2022-08-10T09:38:02.811Z,6.85
2022-08-10T09:41:00.641Z,8.15
2022-08-10T09:43:42.240Z,6.25
2022-08-10T09:46:22.250Z,4.63
2022-08-10T09:49:07.581Z,5.47
2022-08-10T09:51:47.584Z,6.75
2022-08-10T09:54:49.171Z,7.88
2022-08-10T09:57:44.769Z,9.13
2022-08-10T10:00:17.782Z,5.85
2022-08-10T10:03:01.184Z,5.57
2022-08-10T10:05:50.512Z,6.78
2022-08-10T10:08:29.820Z,5.88
2022-08-10T10:11:05.710Z,8.02
2022-08-10T10:14:03.875Z,5.40
2022-08-10T10:16:54.071Z,5.28
2022-08-10T10:19:46.021Z,6.60
2022-08-10T10:22:39.670Z,5.43
2022-08-10T10:25:19.868Z,7.07
2022-08-10T10:27:59.820Z,5.95
2022-08-10T10:30:37.746Z,6.47
2022-08-10T10:33:15.060Z,4.30
2022-08-10T10:35:52.420Z,3.60
2022-08-10T10:38:24.650Z,4.57
2022-08-10T10:41:01.849Z,5.00
2022-08-10T10:43:43.840Z,4.80
2022-08-10T10:46:26.184Z,7.22
2022-08-10T10:49:05.111Z,6.70
2022-08-10T10:51:39.872Z,6.20
2022-08-10T10:54:13.301Z,4.68
2022-08-10T10:56:53.061Z,6.03
2022-08-10T10:59:53.801Z,6.05
2022-08-10T11:02:36.821Z,6.38
2022-08-10T11:05:16.720Z,8.93
2022-08-10T11:07:55.613Z,7.53
2022-08-10T11:10:32.997Z,4.40
2022-08-10T11:14:24.407Z,8.65
2022-08-10T11:16:15.290Z,5.78
2022-08-10T11:19:12.302Z,5.70
2022-08-10T11:21:51.360Z,7.30
2022-08-10T11:24:48.017Z,7.70
2022-08-10T11:27:26.711Z,10.50
2022-08-10T11:30:04.190Z,7.95
2022-08-10T11:32:57.220Z,8.15
2022-08-10T11:35:37.910Z,8.23
2022-08-10T11:38:32.817Z,9.43
2022-08-10T11:44:05.009Z,7.78
2022-08-10T11:46:37.910Z,7.97
2022-08-10T11:49:14.050Z,7.40
2022-08-10T11:51:49.721Z,10.48
2022-08-10T11:54:31.832Z,4.95
2022-08-10T11:57:02.762Z,7.15
2022-08-10T11:59:58.238Z,4.22
2022-08-10T12:02:33.017Z,5.45
2022-08-10T12:05:08.699Z,4.13
2022-08-10T12:10:02.098Z,8.02
2022-08-10T12:10:34.447Z,6.07
2022-08-10T12:13:11.821Z,9.55
2022-08-10T12:15:54.800Z,7.43
2022-08-10T12:18:32.130Z,5.53
2022-08-10T12:21:04.550Z,4.95
2022-08-10T12:23:42.139Z,5.80
2022-08-10T12:26:16.339Z,6.10
2022-08-10T12:28:52.187Z,6.30
2022-08-10T12:31:26.610Z,4.40
2022-08-10T12:34:08.760Z,6.65
2022-08-10T12:36:42.847Z,4.93
2022-08-10T12:39:18.322Z,5.53
2022-08-10T12:41:55.391Z,5.65
2022-08-10T12:44:41.230Z,5.97
2022-08-10T12:47:21.144Z,5.72
2022-08-10T12:50:29.939Z,4.68
2022-08-10T12:55:24.139Z,5.70
2022-08-10T12:57:56.310Z,6.82
2022-08-10T13:00:33.979Z,6.15
2022-08-10T13:03:05.171Z,5.60
2022-08-10T13:06:02.111Z,4.50
2022-08-10T13:08:43.909Z,5.43
2022-08-10T13:12:34.215Z,5.47
2022-08-10T13:14:11.740Z,4.75
2022-08-10T13:16:43.031Z,4.43
2022-08-10T13:19:16.999Z,4.07
2022-08-10T13:21:46.311Z,5.45
2022-08-10T13:24:17.755Z,3.83
2022-08-10T13:27:26.134Z,3.53
2022-08-10T13:29:50.650Z,4.32
2022-08-10T13:32:30.580Z,5.40
2022-08-10T13:35:04.619Z,4.60
2022-08-10T13:37:35.729Z,5.00
2022-08-10T13:40:07.174Z,3.75
2022-08-10T13:42:39.676Z,4.97
2022-08-10T13:45:11.829Z,8.50
2022-08-10T13:47:48.426Z,15.70
2022-08-10T13:50:33.472Z,5.07
2022-08-10T13:53:26.137Z,5.43
2022-08-10T13:55:57.522Z,6.90
2022-08-10T13:58:31.218Z,5.88
2022-08-10T14:01:01.848Z,7.50
2022-08-10T14:03:39.861Z,5.68
2022-08-10T14:06:12.068Z,5.68
2022-08-10T14:08:42.745Z,6.90
2022-08-10T14:11:16.057Z,5.10
2022-08-10T14:13:54.147Z,4.47
2022-08-10T14:16:23.154Z,6.60
2022-08-10T14:18:54.828Z,3.65
2022-08-10T14:21:26.015Z,6.85
2022-08-10T14:23:55.872Z,4.30
2022-08-10T14:26:27.463Z,5.13
2022-08-10T14:28:59.700Z,6.43
2022-08-10T14:31:33.918Z,5.68
2022-08-10T14:34:05.521Z,7.05
2022-08-10T14:36:41.902Z,5.85
2022-08-10T14:39:18.695Z,5.38
2022-08-10T14:42:01.713Z,8.10
2022-08-10T14:44:49.360Z,7.63
2022-08-10T14:47:53.768Z,6.13
2022-08-10T14:50:31.626Z,4.70
2022-08-10T14:53:09.628Z,7.90
2022-08-10T14:55:59.409Z,5.32
2022-08-10T14:58:32.381Z,5.38
2022-08-10T15:01:04.151Z,5.15
2022-08-10T15:04:02.364Z,5.65
2022-08-10T15:06:31.419Z,4.38
2022-08-10T15:09:05.941Z,4.97
2022-08-10T15:12:15.514Z,4.40
2022-08-10T15:14:43.285Z,6.55
2022-08-10T15:17:17.560Z,6.38
2022-08-10T15:20:04.427Z,4.93
2022-08-10T15:22:40.531Z,3.72
2022-08-10T15:25:17.639Z,4.63
2022-08-10T15:27:54.611Z,3.22
2022-08-10T15:30:30.976Z,7.72
2022-08-10T15:33:57.420Z,5.32
2022-08-10T15:36:29.872Z,4.95
2022-08-10T15:39:02.382Z,4.75
2022-08-10T15:41:59.428Z,5.43
2022-08-10T15:44:38.812Z,4.43
2022-08-10T15:47:11.970Z,5.32
2022-08-10T15:49:51.840Z,5.25
2022-08-10T15:52:39.467Z,2.83
2022-08-10T15:55:41.324Z,3.17
2022-08-10T15:58:10.331Z,3.75
2022-08-10T16:00:46.597Z,5.43
2022-08-10T16:03:23.555Z,3.55
2022-08-10T16:06:01.913Z,5.03
2022-08-10T16:08:56.193Z,5.60
2022-08-10T16:11:37.880Z,5.25
2022-08-10T16:14:17.611Z,2.85
2022-08-10T16:16:54.309Z,4.10
2022-08-10T16:19:38.272Z,4.80
2022-08-10T16:22:35.713Z,4.05
2022-08-10T16:25:03.269Z,2.53
2022-08-10T16:27:34.616Z,2.72
2022-08-10T16:30:07.079Z,3.38
2022-08-10T16:32:37.290Z,2.70
2022-08-10T16:35:09.450Z,4.03
2022-08-10T16:37:57.825Z,3.33
2022-08-10T16:40:30.138Z,3.17
2022-08-10T16:43:05.620Z,6.03
2022-08-10T16:48:06.714Z,12.65
2022-08-10T16:50:41.878Z,6.03
2022-08-10T16:55:50.649Z,7.38
2022-08-10T16:58:25.579Z,9.93
2022-08-10T17:00:55.073Z,4.60
2022-08-10T17:04:07.704Z,7.93
2022-08-10T17:06:22.411Z,7.75
2022-08-10T17:08:55.712Z,4.43
2022-08-10T17:11:30.850Z,3.72
2022-08-10T17:14:00.381Z,3.80
2022-08-10T17:16:38.379Z,5.70
2022-08-10T17:19:17.720Z,5.35
2022-08-10T17:21:53.830Z,4.28
2022-08-10T17:24:29.199Z,3.30
2022-08-10T17:27:01.421Z,5.68
2022-08-10T17:30:03.006Z,7.28
2022-08-10T17:32:44.137Z,6.10
2022-08-10T17:35:25.350Z,4.18
2022-08-10T17:38:11.072Z,4.43
2022-08-10T17:40:53.330Z,4.78
2022-08-10T17:43:46.305Z,4.07
2022-08-10T17:46:16.380Z,4.45
2022-08-10T17:48:46.189Z,4.70
2022-08-10T17:51:16.875Z,4.40
2022-08-10T17:53:49.930Z,5.13
2022-08-10T17:56:22.280Z,4.22
2022-08-10T17:58:53.986Z,4.25
2022-08-10T18:01:41.569Z,6.45
2022-08-10T18:04:19.459Z,4.32
2022-08-10T18:06:54.849Z,4.80
2022-08-10T18:09:30.609Z,3.95
2022-08-10T18:12:10.377Z,3.58
2022-08-10T18:14:48.809Z,4.00
2022-08-10T18:17:22.009Z,3.85
2022-08-10T18:19:55.340Z,5.38
2022-08-10T18:22:26.353Z,3.92
2022-08-10T18:24:57.531Z,4.30
2022-08-10T18:28:01.673Z,5.70
2022-08-10T18:30:19.229Z,4.10
2022-08-10T18:32:55.141Z,4.70
2022-08-10T18:35:35.117Z,4.22
2022-08-10T18:38:09.482Z,4.32
2022-08-10T18:40:41.781Z,4.65
2022-08-10T18:44:06.485Z,4.80
2022-08-10T18:46:03.269Z,4.75
2022-08-10T18:48:48.410Z,4.22
2022-08-10T18:51:24.419Z,4.05
2022-08-10T18:54:01.490Z,3.60
2022-08-10T18:56:53.642Z,3.42
2022-08-10T19:00:08.228Z,6.30
2022-08-10T19:02:59.449Z,5.63
2022-08-10T19:05:43.373Z,3.80
2022-08-10T19:08:36.430Z,5.00
2022-08-10T19:11:27.450Z,4.28
2022-08-10T19:14:04.443Z,3.55
2022-08-10T19:16:42.861Z,6.70
2022-08-10T19:19:33.570Z,7.88
2022-08-10T19:22:07.628Z,7.40
2022-08-10T19:24:47.679Z,5.95
2022-08-10T19:27:36.803Z,9.48
2022-08-10T19:30:12.958Z,7.75
2022-08-10T19:33:10.843Z,5.40
2022-08-10T19:36:04.019Z,5.57
2022-08-10T19:38:49.556Z,5.07
2022-08-10T19:41:32.096Z,7.65
2022-08-10T19:44:20.402Z,7.40
2022-08-10T19:46:59.662Z,10.10
2022-08-10T19:49:43.303Z,7.05
2022-08-10T19:52:24.333Z,10.18
2022-08-10T19:55:03.114Z,7.00
2022-08-10T19:57:38.947Z,8.35
2022-08-10T20:00:19.126Z,9.65
2022-08-10T20:03:08.119Z,5.82
2022-08-10T20:06:19.068Z,6.28
2022-08-10T20:08:56.897Z,8.05
2022-08-10T20:11:44.910Z,7.90
2022-08-10T20:14:22.855Z,6.38
2022-08-10T20:16:55.825Z,9.75
2022-08-10T20:19:53.596Z,4.85
2022-08-10T20:22:29.613Z,7.13
2022-08-10T20:25:03.230Z,7.35
2022-08-10T20:27:59.120Z,8.10
2022-08-10T20:30:30.340Z,7.00
2022-08-10T20:33:05.297Z,7.45
2022-08-10T20:35:47.781Z,8.98
2022-08-10T20:38:27.530Z,7.85
2022-08-10T20:41:09.911Z,8.40
2022-08-10T20:43:48.902Z,6.20
2022-08-10T20:46:27.854Z,5.50
2022-08-10T20:49:01.428Z,4.97
2022-08-10T20:51:57.421Z,7.07
2022-08-10T20:54:33.927Z,6.25
2022-08-10T21:00:13.323Z,7.20
2022-08-10T21:03:07.051Z,5.30
2022-08-10T21:05:56.086Z,5.15
2022-08-10T21:08:37.178Z,8.32
2022-08-10T21:11:19.096Z,6.25
2022-08-10T21:13:59.557Z,7.00
2022-08-10T21:16:41.330Z,7.43
2022-08-10T21:19:40.071Z,6.35
2022-08-10T21:22:26.647Z,6.75
2022-08-10T21:25:02.582Z,5.97
2022-08-10T21:27:58.772Z,6.68
2022-08-10T21:30:39.036Z,4.97
2022-08-10T21:33:12.198Z,7.22
2022-08-10T21:35:44.498Z,5.18
2022-08-10T21:38:21.596Z,6.93
2022-08-10T21:41:56.593Z,7.95
2022-08-10T21:44:53.264Z,5.82
2022-08-10T21:48:07.091Z,5.57
2022-08-10T21:51:09.066Z,5.03
2022-08-10T21:54:07.299Z,5.10
2022-08-10T21:57:03.539Z,4.53
2022-08-10T22:02:50.223Z,5.50
2022-08-10T22:05:42.405Z,5.50
2022-08-10T22:08:33.917Z,12.65
2022-08-10T22:11:23.106Z,5.97
2022-08-10T22:14:10.868Z,7.85
2022-08-10T22:17:59.678Z,5.93
2022-08-10T22:20:25.028Z,5.60
2022-08-10T22:23:47.266Z,8.27
2022-08-10T22:27:00.616Z,6.13
2022-08-10T22:29:56.704Z,6.45
2022-08-10T22:33:07.576Z,6.35
2022-08-10T22:36:27.296Z,11.25
2022-08-10T22:40:10.905Z,5.30
2022-08-10T22:43:09.796Z,5.65
2022-08-10T22:46:12.606Z,5.15
2022-08-10T22:49:03.706Z,8.13
2022-08-10T22:52:09.557Z,7.30
2022-08-10T22:55:12.835Z,5.03
2022-08-10T22:58:11.755Z,7.43
2022-08-10T23:01:10.985Z,6.32
2022-08-10T23:04:08.435Z,5.38
2022-08-10T23:07:07.528Z,7.00
2022-08-10T23:09:48.526Z,5.28
2022-08-10T23:12:34.517Z,6.03
2022-08-10T23:15:27.005Z,4.97
2022-08-10T23:18:17.515Z,6.15
2022-08-10T23:20:50.266Z,6.03
2022-08-10T23:23:24.164Z,5.43
2022-08-10T23:25:57.483Z,5.28
2022-08-10T23:28:38.885Z,5.53
2022-08-10T23:31:51.897Z,5.47
2022-08-10T23:34:10.045Z,5.70
2022-08-10T23:36:42.846Z,6.30
2022-08-10T23:39:26.017Z,5.10
2022-08-10T23:42:04.718Z,5.07
2022-08-10T23:44:43.564Z,5.25
2022-08-10T23:47:15.334Z,5.32
2022-08-10T23:49:45.846Z,5.32
2022-08-10T23:52:19.975Z,6.65
2022-08-10T23:54:51.534Z,4.55
2022-08-10T23:57:23.252Z,4.93
2022-08-10T23:59:59.048Z,4.82
